หน้าหลัก
METAR-TAF:

METAR-TAF

ท่าอากาศยาน :

เฮลซิงกิ, ฟินแลนด์

ละติจูด: 60-19N, ลองจิจูด: 024-58E, ความสูง: 51 ม.

การสังเกตสภาพอากาศปัจจุบัน

รายงานได้ทำขึ้นเมื่อ 25 นาทีที่แล้ว ณ เวลา 18:50 UTC
ลม 5 นอตจากตะวันออกเฉียงใต้
อุณหภูมิ 11°C
ความชื้น 66%
ความกดอากาศ 1024 hPa
ทัศนวิสัย 10 กม. หรือมากกว่า
ไม่มีเมฆต่ำกว่า 1,500 ม. และไม่มีเมฆคิวมูโลนิมบัส

METAR: EFHK 011850Z 13005KT CAVOK 11/05 Q1024 NOSIG

เวลา: 22:15 (19:15 UTC)

การพยากรณ์

รายงานได้ทำขึ้นเมื่อ 1 ชั่วโมงและ 45 นาทีที่แล้ว ณ เวลา 17:30 UTC
การพยากรณ์มีผลตั้งแต่วันที่ 01 ณ เวลา 18 UTC จนถึงวันที่ 02 ณ เวลา 18 UTC
ลม 10 นอตจากใต้/ตะวันออกเฉียงใต้
ทัศนวิสัย 10 กม. หรือมากกว่า
ไม่มีเมฆต่ำกว่า 1,500 ม. และไม่มีเมฆคิวมูโลนิมบัส
กำลังกลายเป็น
ตั้งแต่วันที่ 01 ณ เวลา 19 UTC จนถึงวันที่ 01 ณ เวลา 21 UTC
ลม 2 นอตจากทิศทางซึ่งแปรผันได้
กำลังกลายเป็น
ตั้งแต่วันที่ 02 ณ เวลา 08 UTC จนถึงวันที่ 02 ณ เวลา 10 UTC
ลม 10 นอตจากตะวันออกเฉียงใต้

TAF: EFHK 011730Z 0118/0218 15010KT CAVOK BECMG 0119/0121 VRB02KT BECMG 0208/0210 14010KT

สังเกตการณ์สภาพอากาศและพยากรณ์อากาศของสนามบินมากกว่า 4000 แห่ง (รายงาน METAR และ TAF).

สถานีที่ดูได้จะแสดงไว้ด้วยจุดสีเหลืองและสีแดงบนแผนที่.

เลื่อนเมาส์ไปเหนือจุดเพื่อดูชื่อสถานี.

แล้วคลิกเพื่อดูสังเกตการณ์และการพยากรณ์สภาพอากาศ.

ในการเปลี่ยนแผนที่: คลิกที่ปุ่มสีเขียวที่มีกากบาทสีดำเพื่อซูมเข้า; ที่ปุ่มสีเขียวที่มีขีดเพื่อซูมออก; หรือที่ลูกศรสีเขียวเพื่อไปยังแผนที่ที่อยู่ติดกัน.


METAR-TAF: